Time;durP1;ratioP1;P1;durP2;ratioP2;P2;SDS_P1;SDS_P2;PMS_P1;PMS_P2;Temp;Humidity;BMP_temperature;BMP_pressure;BME280_temperature;BME280_humidity;BME280_pressure;Samples;Min_cycle;Max_cycle;Signal;HPM_P1;HPM_P2
2023/03/25 00:01:31;;;;;;;6.43;3.35;;;;;;;6.11;97.69;98291.47;5085643;28;20035;-38
2023/03/25 00:04:03;;;;;;;7.40;3.85;;;;;;;6.14;97.13;98299.06;5069080;28;20052;-40
2023/03/25 00:06:30;;;;;;;7.25;3.58;;;;;;;6.11;96.91;98289.72;5067817;28;20480;-38
2023/03/25 00:08:56;;;;;;;12.68;5.15;;;;;;;6.09;96.91;98293.25;5070296;28;20075;-39
2023/03/25 00:11:22;;;;;;;15.90;7.35;;;;;;;6.06;97.13;98291.66;5088003;28;20120;-38
2023/03/25 00:13:48;;;;;;;7.72;3.40;;;;;;;6.07;96.96;98295.88;5087517;28;20040;-39
2023/03/25 00:16:14;;;;;;;7.43;4.18;;;;;;;6.00;96.88;98278.97;5065667;28;20157;-39
2023/03/25 00:18:40;;;;;;;8.15;3.42;;;;;;;5.93;97.33;98268.03;5085414;28;20039;-39
2023/03/25 00:21:10;;;;;;;6.78;3.22;;;;;;;5.99;97.02;98272.13;5088310;28;20043;-38
2023/03/25 00:23:37;;;;;;;7.95;3.15;;;;;;;5.87;97.32;98249.38;5087053;28;20036;-38
2023/03/25 00:26:04;;;;;;;5.07;3.33;;;;;;;6.00;97.00;98267.81;5081225;28;20436;-38
2023/03/25 00:28:33;;;;;;;9.02;3.55;;;;;;;5.97;97.46;98253.28;5077932;28;20033;-38
2023/03/25 00:31:05;;;;;;;5.57;3.00;;;;;;;5.97;97.05;98265.38;5083941;28;20051;-39
2023/03/25 00:33:32;;;;;;;5.03;2.90;;;;;;;5.67;96.92;98218.34;5078280;28;20040;-38
2023/03/25 00:35:58;;;;;;;8.60;4.35;;;;;;;5.88;96.94;98251.91;5067784;28;20051;-39
2023/03/25 00:38:36;;;;;;;6.25;3.38;;;;;;;5.97;96.91;98244.72;5085458;28;20047;-37
2023/03/25 00:41:12;;;;;;;7.45;3.13;;;;;;;5.94;96.78;98246.53;5094260;28;20071;-39
2023/03/25 00:43:39;;;;;;;4.72;3.20;;;;;;;5.94;96.71;98245.69;5098371;28;20040;-38
2023/03/25 00:46:05;;;;;;;10.05;4.63;;;;;;;5.64;97.11;98190.94;5055540;28;20079;-38
2023/03/25 00:48:32;;;;;;;4.43;3.00;;;;;;;5.99;97.16;98233.44;5085592;28;20048;-38
2023/03/25 00:50:57;;;;;;;10.23;4.75;;;;;;;5.98;96.69;98229.19;5069727;28;20040;-38
2023/03/25 00:53:23;;;;;;;9.68;3.75;;;;;;;5.99;96.76;98230.84;5076499;28;20036;-39
2023/03/25 00:55:49;;;;;;;9.85;4.22;;;;;;;5.99;96.91;98236.00;5066469;28;20500;-38
2023/03/25 00:58:15;;;;;;;7.10;4.43;;;;;;;5.97;97.03;98236.06;5077231;28;20100;-39
2023/03/25 01:00:41;;;;;;;5.05;3.13;;;;;;;5.98;96.69;98224.00;5063993;28;20572;-39
2023/03/25 01:03:08;;;;;;;17.85;7.45;;;;;;;5.97;96.51;98230.06;5085627;28;20069;-37
2023/03/25 01:05:34;;;;;;;4.85;3.30;;;;;;;6.02;96.84;98214.44;5068605;28;20138;-38
2023/03/25 01:08:00;;;;;;;4.30;2.83;;;;;;;6.06;96.78;98206.50;5085113;28;20120;-38
2023/03/25 01:10:29;;;;;;;7.45;3.60;;;;;;;5.89;96.52;98173.66;5086354;28;20044;-39
2023/03/25 01:12:55;;;;;;;5.35;3.42;;;;;;;5.99;96.27;98186.16;5064609;28;20059;-38
2023/03/25 01:15:22;;;;;;;8.32;4.70;;;;;;;5.97;96.29;98180.25;5073631;28;20736;-38
2023/03/25 01:17:48;;;;;;;12.90;6.32;;;;;;;6.15;96.32;98206.13;5079926;28;20040;-38
2023/03/25 01:20:14;;;;;;;6.13;3.30;;;;;;;6.17;96.22;98214.66;5069362;28;20131;-38
2023/03/25 01:22:40;;;;;;;11.57;4.97;;;;;;;6.15;95.94;98200.13;5065356;28;20116;-39
2023/03/25 01:25:07;;;;;;;8.20;3.58;;;;;;;6.19;95.57;98222.31;5066029;28;20040;-38
2023/03/25 01:27:33;;;;;;;10.60;3.22;;;;;;;6.18;95.84;98215.47;5048655;28;20129;-38
2023/03/25 01:29:59;;;;;;;10.60;5.70;;;;;;;6.17;95.58;98206.09;5065847;28;20515;-38
2023/03/25 01:32:25;;;;;;;6.75;3.22;;;;;;;5.98;95.85;98172.44;5048914;28;20044;-38
2023/03/25 01:34:51;;;;;;;6.70;3.22;;;;;;;6.13;95.72;98195.03;5079717;28;20032;-38
2023/03/25 01:37:17;;;;;;;7.82;4.57;;;;;;;6.12;95.66;98188.22;5088986;28;20066;-40
2023/03/25 01:39:43;;;;;;;6.10;2.88;;;;;;;6.12;96.13;98184.78;5072630;28;20066;-39
2023/03/25 01:42:10;;;;;;;8.38;3.33;;;;;;;5.99;96.35;98147.47;5072059;28;20060;-39
2023/03/25 01:44:39;;;;;;;8.20;3.83;;;;;;;6.20;95.51;98165.50;5075988;28;20135;-38
2023/03/25 01:47:07;;;;;;;3.10;2.20;;;;;;;6.23;96.01;98164.53;5076855;28;20130;-38
2023/03/25 01:49:39;;;;;;;12.25;5.53;;;;;;;6.29;95.42;98159.13;5090945;28;20039;-38
2023/03/25 01:52:09;;;;;;;6.80;3.05;;;;;;;6.35;95.78;98159.72;5089345;28;20054;-38
2023/03/25 01:54:37;;;;;;;8.52;4.50;;;;;;;6.38;95.36;98164.72;5084808;28;20067;-38
2023/03/25 01:57:05;;;;;;;8.90;3.70;;;;;;;6.23;95.27;98118.91;5079420;28;20040;-38
2023/03/25 01:59:31;;;;;;;6.68;3.10;;;;;;;6.44;95.10;98144.75;5072736;28;20046;-39
2023/03/25 02:02:01;;;;;;;9.00;3.00;;;;;;;6.46;94.92;98135.19;5052391;28;20062;-38
2023/03/25 02:04:57;;;;;;;10.10;4.97;;;;;;;6.42;94.21;98129.31;5069262;28;20036;-39
2023/03/25 02:07:31;;;;;;;7.82;3.30;;;;;;;6.44;94.19;98126.69;5069254;28;20070;-40
2023/03/25 02:10:04;;;;;;;7.13;3.20;;;;;;;6.48;94.65;98133.38;5068859;28;20048;-39
2023/03/25 02:12:30;;;;;;;7.28;3.40;;;;;;;6.51;94.58;98133.25;5082379;28;20101;-38
2023/03/25 02:14:59;;;;;;;7.13;4.03;;;;;;;6.35;94.55;98102.94;5077011;28;20032;-39
2023/03/25 02:17:41;;;;;;;7.25;3.60;;;;;;;6.55;94.32;98133.03;5055714;28;20044;-39
2023/03/25 02:20:22;;;;;;;7.35;3.53;;;;;;;6.56;94.29;98139.91;5071318;28;20093;-40
2023/03/25 02:23:15;;;;;;;6.93;3.30;;;;;;;6.49;94.28;98128.13;5085083;28;20044;-38
2023/03/25 02:26:31;;;;;;;11.77;3.92;;;;;;;6.59;94.48;98128.59;5072449;28;20538;-41
2023/03/25 02:29:35;;;;;;;11.00;4.45;;;;;;;6.63;94.61;98122.41;5038574;28;20071;-39
2023/03/25 02:32:04;;;;;;;4.72;2.83;;;;;;;6.69;94.37;98109.22;5068541;28;20089;-38
2023/03/25 02:34:36;;;;;;;5.72;3.30;;;;;;;6.67;93.79;98103.28;5070752;28;20048;-39
2023/03/25 02:37:02;;;;;;;9.20;4.65;;;;;;;6.64;94.02;98101.69;5085777;28;20055;-38
2023/03/25 02:40:30;;;;;;;6.43;3.70;;;;;;;6.65;94.62;98093.00;5088735;28;20036;-39
2023/03/25 02:43:01;;;;;;;9.40;3.67;;;;;;;6.63;95.18;98073.34;5048727;28;20252;-40
2023/03/25 02:45:31;;;;;;;6.57;3.33;;;;;;;6.66;94.68;98068.88;5084706;28;20538;-39
2023/03/25 02:48:20;;;;;;;7.30;4.03;;;;;;;6.87;94.78;98079.97;5067734;28;20526;-39
2023/03/25 02:50:51;;;;;;;7.15;3.80;;;;;;;7.01;94.30;98081.97;5088228;28;20044;-38
2023/03/25 02:53:23;;;;;;;4.10;2.60;;;;;;;7.13;93.63;98082.22;5071765;28;20101;-38
2023/03/25 02:55:50;;;;;;;10.05;3.20;;;;;;;7.22;93.31;98079.19;5066222;28;20052;-38
2023/03/25 02:58:18;;;;;;;10.07;3.70;;;;;;;7.30;92.71;98067.69;5068198;28;20087;-39
2023/03/25 03:00:45;;;;;;;11.68;3.60;;;;;;;7.41;91.78;98102.47;5068280;28;20036;-39
2023/03/25 03:03:11;;;;;;;8.57;3.05;;;;;;;7.44;90.95;98070.44;5069367;28;20045;-38
2023/03/25 03:05:40;;;;;;;5.38;2.97;;;;;;;7.49;90.54;98061.56;5067706;28;20036;-39
2023/03/25 03:08:31;;;;;;;6.25;4.07;;;;;;;7.53;89.96;98059.69;5067889;28;20557;-38
2023/03/25 03:11:10;;;;;;;6.63;3.72;;;;;;;7.58;89.88;98070.66;5065012;28;20050;-39
2023/03/25 03:13:36;;;;;;;10.05;5.00;;;;;;;7.60;89.39;98053.28;5088046;28;20079;-38
2023/03/25 03:16:39;;;;;;;8.27;4.65;;;;;;;7.52;88.96;98033.00;5077497;28;20040;-39
2023/03/25 03:19:22;;;;;;;4.22;2.60;;;;;;;7.71;88.26;98053.59;5063774;28;20049;-39
2023/03/25 03:22:01;;;;;;;13.60;6.68;;;;;;;7.73;87.41;98044.03;5071292;28;20595;-40
2023/03/25 03:24:31;;;;;;;4.88;2.72;;;;;;;7.78;87.15;98033.47;5070768;28;20044;-39
2023/03/25 03:27:13;;;;;;;10.30;4.13;;;;;;;7.80;86.91;98024.69;5069594;28;20041;-38
2023/03/25 03:29:45;;;;;;;6.78;2.95;;;;;;;7.87;86.37;98013.13;5058762;28;20519;-39
2023/03/25 03:32:52;;;;;;;10.65;4.05;;;;;;;7.93;86.27;98012.84;5072366;28;20723;-38
2023/03/25 03:35:26;;;;;;;7.25;4.15;;;;;;;7.95;85.85;97992.06;5061281;28;20041;-38
2023/03/25 03:37:57;;;;;;;5.75;3.42;;;;;;;7.98;85.54;98003.09;5084120;28;20121;-39
2023/03/25 03:40:24;;;;;;;8.10;4.03;;;;;;;8.03;85.38;97995.94;5080554;28;20066;-38
2023/03/25 03:43:02;;;;;;;6.30;3.58;;;;;;;7.77;84.62;97952.44;5088963;28;20058;-39
2023/03/25 03:45:36;;;;;;;5.43;3.22;;;;;;;8.08;84.72;97988.75;5080060;28;20046;-38
2023/03/25 03:48:06;;;;;;;6.15;3.03;;;;;;;8.10;84.12;97999.03;5052857;28;20048;-38
2023/03/25 03:50:37;;;;;;;11.88;5.47;;;;;;;8.13;84.10;97987.69;5087342;28;20054;-38
2023/03/25 03:53:26;;;;;;;5.55;2.95;;;;;;;8.17;83.82;97981.44;5088711;28;20143;-38
2023/03/25 03:56:00;;;;;;;6.55;3.42;;;;;;;7.97;83.41;97938.47;5062948;28;20581;-38
2023/03/25 03:58:40;;;;;;;8.18;3.40;;;;;;;8.16;83.50;97972.00;5066055;28;20047;-38
2023/03/25 04:01:26;;;;;;;6.43;3.22;;;;;;;8.22;83.33;97964.75;5066286;28;20118;-38
2023/03/25 04:04:01;;;;;;;7.95;4.05;;;;;;;8.27;82.93;97973.09;5033999;28;20097;-39
2023/03/25 04:06:40;;;;;;;10.23;5.35;;;;;;;8.29;83.02;97970.44;5088715;28;20040;-39
2023/03/25 04:09:39;;;;;;;7.53;3.88;;;;;;;8.32;82.73;97965.16;5087128;28;20040;-39
2023/03/25 04:12:16;;;;;;;;;;;;;;;8.37;82.24;97965.75;5069677;28;20040;-39
2023/03/25 04:14:43;;;;;;;9.68;4.13;;;;;;;8.34;82.01;97955.53;5087215;28;19916;-38
2023/03/25 04:17:09;;;;;;;6.70;3.05;;;;;;;8.40;82.03;97970.75;5066424;28;20040;-39
2023/03/25 04:19:35;;;;;;;10.57;5.68;;;;;;;8.41;82.05;97946.53;5066972;28;20657;-46
2023/03/25 04:22:02;;;;;;;5.20;3.33;;;;;;;8.45;81.90;97945.44;5087213;28;20032;-47
2023/03/25 04:24:31;;;;;;;7.38;3.97;;;;;;;8.27;81.12;97902.41;5087117;28;20040;-39
2023/03/25 04:27:03;;;;;;;4.25;3.17;;;;;;;8.46;81.14;97937.59;5076934;28;20055;-39
2023/03/25 04:29:30;;;;;;;5.72;2.80;;;;;;;8.51;81.25;97937.34;5066703;28;20086;-39
2023/03/25 04:31:57;;;;;;;7.43;4.07;;;;;;;8.49;80.96;97928.81;5066808;28;20075;-38
2023/03/25 04:34:23;;;;;;;9.95;4.68;;;;;;;8.52;81.08;97913.13;5080326;28;20040;-39
2023/03/25 04:36:49;;;;;;;4.40;3.13;;;;;;;8.59;80.46;97916.19;5082948;28;20044;-39
2023/03/25 04:39:16;;;;;;;5.53;3.35;;;;;;;8.59;80.29;97918.78;5066248;28;20047;-39
2023/03/25 04:41:43;;;;;;;7.32;3.75;;;;;;;8.63;80.04;97909.97;5067528;28;20048;-38
2023/03/25 04:44:09;;;;;;;5.20;3.35;;;;;;;8.66;80.17;97910.63;5073554;28;20043;-40
2023/03/25 04:46:36;;;;;;;6.20;3.45;;;;;;;8.42;79.79;97865.34;5063805;28;20071;-39
2023/03/25 04:49:05;;;;;;;7.43;3.40;;;;;;;8.63;79.25;97889.25;5058389;28;20044;-39
2023/03/25 04:51:31;;;;;;;5.32;3.13;;;;;;;8.61;79.17;97875.53;5086439;28;20035;-39
2023/03/25 04:53:58;;;;;;;10.98;4.93;;;;;;;8.76;78.88;97893.66;5084592;28;20052;-39
2023/03/25 04:56:24;;;;;;;10.00;5.07;;;;;;;8.81;78.83;97888.19;5082210;28;20037;-38
2023/03/25 04:58:50;;;;;;;5.35;3.20;;;;;;;8.89;78.43;97875.66;5055918;28;20050;-39
2023/03/25 05:01:29;;;;;;;5.32;3.05;;;;;;;8.91;78.18;97885.00;5103209;28;20043;-39
2023/03/25 05:04:04;;;;;;;5.72;2.70;;;;;;;8.92;77.84;97880.66;5069621;28;20511;-40
2023/03/25 05:06:34;;;;;;;4.35;3.10;;;;;;;8.95;77.66;97869.31;5085746;28;20047;-40
2023/03/25 05:09:03;;;;;;;7.50;3.25;;;;;;;9.01;77.43;97866.34;5082366;28;20068;-39
2023/03/25 05:11:30;;;;;;;4.72;3.30;;;;;;;8.97;77.39;97855.31;5090479;28;20047;-39
2023/03/25 05:13:56;;;;;;;4.32;2.80;;;;;;;9.03;76.66;97852.38;5090673;28;20044;-39
2023/03/25 05:16:23;;;;;;;4.45;3.00;;;;;;;9.16;76.75;97876.66;5078964;28;20039;-38
2023/03/25 05:18:49;;;;;;;5.93;3.20;;;;;;;9.21;76.90;97884.22;5094950;28;20507;-39
2023/03/25 05:21:15;;;;;;;6.07;3.45;;;;;;;9.17;76.42;97880.09;5089922;28;20511;-42
2023/03/25 05:23:42;;;;;;;8.43;3.47;;;;;;;9.11;76.68;97885.63;5090445;28;20044;-39
2023/03/25 05:26:08;;;;;;;5.20;3.47;;;;;;;9.04;77.30;97892.94;5086628;28;20339;-39
2023/03/25 05:28:34;;;;;;;4.70;2.70;;;;;;;8.93;77.67;97866.78;5069672;28;20052;-39
2023/03/25 05:31:07;;;;;;;9.02;4.72;;;;;;;8.91;77.97;97886.75;5071981;28;20051;-38
2023/03/25 05:33:43;;;;;;;5.75;3.72;;;;;;;8.90;78.36;97898.03;5090024;28;20457;-39
2023/03/25 05:36:09;;;;;;;6.25;3.38;;;;;;;8.93;78.96;97879.75;5083614;28;20444;-40
2023/03/25 05:38:36;;;;;;;10.65;4.00;;;;;;;8.73;79.03;97851.53;5082575;28;20050;-39
2023/03/25 05:41:03;;;;;;;7.95;4.00;;;;;;;8.84;79.25;97877.69;5084154;28;20221;-39
2023/03/25 05:43:34;;;;;;;8.95;3.88;;;;;;;8.85;79.69;97868.97;5072763;28;20147;-45
2023/03/25 05:46:00;;;;;;;6.45;3.95;;;;;;;8.86;79.84;97870.63;5066960;28;20048;-39
2023/03/25 05:48:31;;;;;;;6.57;3.60;;;;;;;8.90;79.78;97874.72;5036549;28;20036;-38
2023/03/25 05:50:59;;;;;;;6.75;4.10;;;;;;;8.73;80.04;97861.91;5069274;28;20172;-40
2023/03/25 05:53:24;;;;;;;6.38;3.90;;;;;;;8.82;80.83;97880.34;5073285;28;20051;-39
2023/03/25 05:55:50;;;;;;;8.35;4.68;;;;;;;8.89;80.58;97870.50;5085412;28;20359;-38
2023/03/25 05:58:18;;;;;;;6.38;3.97;;;;;;;8.95;80.25;97870.13;5070053;28;20134;-40
2023/03/25 06:00:45;;;;;;;3.53;2.30;;;;;;;8.96;80.27;97874.38;5069805;28;20036;-39
2023/03/25 06:03:11;;;;;;;7.15;3.90;;;;;;;9.12;80.53;97869.16;5103086;28;20047;-38
2023/03/25 06:05:41;;;;;;;6.35;4.00;;;;;;;9.38;79.87;97863.28;5087553;28;20048;-38
2023/03/25 06:08:07;;;;;;;6.95;3.90;;;;;;;9.68;79.07;97868.47;5080736;28;20036;-39
2023/03/25 06:10:33;;;;;;;6.78;3.47;;;;;;;9.75;77.75;97839.44;5080123;28;20538;-39
2023/03/25 06:12:59;;;;;;;8.32;3.80;;;;;;;9.95;77.05;97864.16;5084191;28;20032;-38
2023/03/25 06:15:32;;;;;;;6.35;4.28;;;;;;;9.82;76.84;97839.06;5055809;28;20040;-39
2023/03/25 06:17:59;;;;;;;6.57;4.05;;;;;;;9.88;76.83;97862.06;5088795;28;20044;-40
2023/03/25 06:20:25;;;;;;;12.00;6.07;;;;;;;9.89;76.66;97835.19;5055231;28;20040;-39
2023/03/25 06:22:51;;;;;;;15.55;4.97;;;;;;;9.96;76.65;97849.44;5073019;28;20032;-41
2023/03/25 06:25:22;;;;;;;8.15;4.72;;;;;;;9.88;76.52;97851.69;5086394;28;20512;-42
2023/03/25 06:27:49;;;;;;;6.40;3.72;;;;;;;9.68;77.43;97853.69;5039197;28;20587;-39
2023/03/25 06:30:20;;;;;;;8.45;4.43;;;;;;;9.50;78.57;97857.41;5081161;28;20040;-40
2023/03/25 06:32:49;;;;;;;9.70;4.43;;;;;;;9.42;79.47;97867.38;5068053;28;20102;-41
2023/03/25 06:35:18;;;;;;;7.85;5.07;;;;;;;9.31;79.89;97849.88;5074320;28;20048;-38
2023/03/25 06:37:46;;;;;;;9.68;5.15;;;;;;;9.21;80.62;97838.34;5077244;28;20040;-39
2023/03/25 06:40:17;;;;;;;14.50;7.03;;;;;;;9.23;81.79;97859.00;5084375;28;20045;-38
2023/03/25 06:42:43;;;;;;;9.00;4.93;;;;;;;8.91;84.44;97856.50;5083049;28;21247;-40
2023/03/25 06:45:35;;;;;;;8.05;3.78;;;;;;;8.56;89.97;97885.31;5083990;28;20530;-39
2023/03/25 06:48:07;;;;;;;9.85;5.60;;;;;;;8.15;93.45;97841.75;5044901;28;20766;-40
2023/03/25 06:50:33;;;;;;;10.00;6.32;;;;;;;8.17;97.21;97860.63;5059529;28;20039;-39
2023/03/25 06:53:00;;;;;;;15.55;7.28;;;;;;;8.05;100.00;97841.44;5084683;28;20086;-40
2023/03/25 06:55:25;;;;;;;12.30;6.43;;;;;;;7.93;100.00;97849.84;5087704;28;20138;-39
2023/03/25 06:57:55;;;;;;;16.25;7.15;;;;;;;7.86;100.00;97856.25;5087763;28;20420;-40
2023/03/25 07:00:23;;;;;;;13.02;5.40;;;;;;;7.66;100.00;97831.41;5090049;28;20397;-38
2023/03/25 07:02:50;;;;;;;15.82;8.77;;;;;;;7.79;100.00;97849.75;5083236;28;20036;-40
2023/03/25 07:05:16;;;;;;;16.35;8.07;;;;;;;7.83;100.00;97864.16;5081085;28;20142;-39
2023/03/25 07:07:42;;;;;;;16.25;7.13;;;;;;;7.80;100.00;97869.50;5056463;28;20032;-40
2023/03/25 07:10:13;;;;;;;15.02;8.63;;;;;;;7.65;100.00;97832.34;5071825;28;20397;-40
2023/03/25 07:12:39;;;;;;;15.63;7.70;;;;;;;7.81;100.00;97854.81;5081026;28;20454;-39
2023/03/25 07:15:06;;;;;;;18.15;8.43;;;;;;;7.66;100.00;97823.66;5083898;28;20617;-40
2023/03/25 07:17:33;;;;;;;19.05;9.88;;;;;;;7.82;100.00;97861.66;5052209;28;20135;-39
2023/03/25 07:19:59;;;;;;;13.43;7.95;;;;;;;7.78;100.00;97850.66;5071300;28;20055;-39
2023/03/25 07:22:25;;;;;;;19.85;10.60;;;;;;;7.78;100.00;97844.63;5075326;28;20044;-39
2023/03/25 07:24:51;;;;;;;15.82;8.77;;;;;;;7.69;100.00;97824.44;5061679;28;20430;-39
2023/03/25 07:27:17;;;;;;;14.68;6.60;;;;;;;7.77;100.00;97837.78;5067717;28;20040;-40
2023/03/25 07:29:51;;;;;;;13.30;6.72;;;;;;;7.81;100.00;97841.88;5064246;28;20063;-39
2023/03/25 07:32:17;;;;;;;19.25;10.35;;;;;;;7.79;100.00;97829.03;5073245;28;20043;-38
2023/03/25 07:34:43;;;;;;;13.60;7.38;;;;;;;7.84;100.00;97842.56;5067592;28;20048;-38
2023/03/25 07:37:09;;;;;;;18.65;9.95;;;;;;;7.69;100.00;97811.50;5089197;28;20047;-38
2023/03/25 07:39:35;;;;;;;14.60;7.53;;;;;;;7.80;100.00;97810.00;5080237;28;20130;-40
2023/03/25 07:42:01;;;;;;;16.90;8.65;;;;;;;7.91;100.00;97837.88;5073628;28;20147;-39
2023/03/25 07:44:50;;;;;;;15.35;8.70;;;;;;;7.92;100.00;97835.22;5078553;28;20063;-39
2023/03/25 07:47:16;;;;;;;18.50;9.25;;;;;;;7.85;100.00;97831.28;5086443;28;20036;-43
2023/03/25 07:49:43;;;;;;;18.77;8.70;;;;;;;8.03;100.00;97847.59;5066253;28;20043;-41
2023/03/25 07:52:09;;;;;;;21.85;11.55;;;;;;;7.93;100.00;97844.66;5081892;28;20526;-39
2023/03/25 07:54:37;;;;;;;19.55;11.23;;;;;;;8.05;100.00;97851.78;5076191;28;20040;-40
2023/03/25 07:57:02;;;;;;;18.63;10.77;;;;;;;8.13;100.00;97850.50;5081852;28;20510;-40
2023/03/25 07:59:28;;;;;;;20.02;10.35;;;;;;;8.17;100.00;97845.09;5065582;28;20039;-41
2023/03/25 08:01:54;;;;;;;18.05;10.57;;;;;;;8.00;100.00;97822.72;5073517;28;20511;-40
2023/03/25 08:04:20;;;;;;;17.42;9.95;;;;;;;8.23;100.00;97862.88;5059394;28;20043;-41
2023/03/25 08:06:46;;;;;;;15.90;9.50;;;;;;;8.23;100.00;97857.69;5082767;28;20465;-39
2023/03/25 08:09:13;;;;;;;25.80;13.52;;;;;;;8.24;100.00;97859.38;5073001;28;20082;-40
2023/03/25 08:11:39;;;;;;;21.70;12.50;;;;;;;8.13;100.00;97853.09;5088831;28;20096;-39
2023/03/25 08:14:05;;;;;;;21.45;12.00;;;;;;;8.21;100.00;97862.16;5081054;28;20033;-40
2023/03/25 08:16:30;;;;;;;21.65;10.50;;;;;;;8.27;100.00;97885.09;5065967;28;20109;-40
2023/03/25 08:18:57;;;;;;;28.40;13.98;;;;;;;7.98;100.00;97831.47;5086860;28;20044;-40
2023/03/25 08:21:26;;;;;;;18.08;10.75;;;;;;;8.25;100.00;97879.19;5086866;28;20091;-40
2023/03/25 08:23:57;;;;;;;23.75;12.05;;;;;;;8.20;100.00;97881.19;5076351;28;20032;-42
2023/03/25 08:26:25;;;;;;;35.05;15.73;;;;;;;8.17;100.00;97873.56;5084180;28;20032;-39
2023/03/25 08:28:53;;;;;;;23.92;12.63;;;;;;;8.25;100.00;97886.09;5083001;28;20040;-40
2023/03/25 08:31:20;;;;;;;29.15;12.88;;;;;;;8.23;100.00;97888.75;5084121;28;20040;-41
2023/03/25 08:33:46;;;;;;;31.00;15.88;;;;;;;8.13;100.00;97868.63;5080428;28;20143;-40
2023/03/25 08:36:13;;;;;;;23.73;12.50;;;;;;;8.28;100.00;97886.75;5068007;28;20052;-38
2023/03/25 08:38:40;;;;;;;31.10;15.13;;;;;;;8.24;100.00;97881.84;5066968;28;20039;-39
2023/03/25 08:41:06;;;;;;;29.25;15.07;;;;;;;8.13;100.00;97866.88;5087908;28;20144;-39
2023/03/25 08:43:32;;;;;;;32.10;15.82;;;;;;;8.26;100.00;97882.59;5081002;28;20563;-39
2023/03/25 08:45:58;;;;;;;28.48;14.07;;;;;;;8.27;100.00;97890.25;5078867;28;20119;-40
2023/03/25 08:48:24;;;;;;;20.60;10.48;;;;;;;8.31;100.00;97886.66;5086585;28;20044;-41
2023/03/25 08:50:50;;;;;;;24.45;11.45;;;;;;;8.13;100.00;97853.94;5087651;28;20122;-38
2023/03/25 08:53:16;;;;;;;25.40;10.10;;;;;;;8.32;100.00;97892.66;5082017;28;20048;-39
2023/03/25 08:55:42;;;;;;;26.02;15.13;;;;;;;8.30;100.00;97889.31;5086359;28;20024;-39
2023/03/25 08:58:08;;;;;;;19.80;11.30;;;;;;;8.32;100.00;97898.66;5050022;28;20564;-41
2023/03/25 09:00:36;;;;;;;26.80;14.13;;;;;;;8.33;100.00;97884.78;5085958;28;20534;-40
2023/03/25 09:03:05;;;;;;;28.83;14.13;;;;;;;8.36;100.00;97883.81;5084423;28;20040;-37
2023/03/25 09:05:31;;;;;;;19.27;10.73;;;;;;;8.19;100.00;97856.19;5086597;28;20064;-39
2023/03/25 09:07:57;;;;;;;24.55;11.95;;;;;;;8.44;100.00;97874.69;5067244;28;20573;-38
2023/03/25 09:10:24;;;;;;;23.58;11.40;;;;;;;8.55;100.00;97889.66;5086259;28;20467;-40
2023/03/25 09:12:50;;;;;;;24.02;12.88;;;;;;;8.62;100.00;97877.19;5079279;28;20043;-38
2023/03/25 09:15:16;;;;;;;16.85;9.32;;;;;;;8.69;100.00;97887.13;5086771;28;20090;-38
2023/03/25 09:17:42;;;;;;;23.88;11.82;;;;;;;8.72;100.00;97874.00;5077894;28;20113;-38
2023/03/25 09:20:09;;;;;;;16.13;9.15;;;;;;;8.92;100.00;97854.75;5081887;28;20119;-41
2023/03/25 09:22:35;;;;;;;22.73;12.55;;;;;;;9.13;100.00;97860.47;5078237;28;20051;-37
2023/03/25 09:25:02;;;;;;;12.82;7.07;;;;;;;9.11;100.00;97876.09;5095974;28;20046;-38
2023/03/25 09:27:28;;;;;;;17.85;10.80;;;;;;;9.21;100.00;97891.97;5088748;28;20038;-39
2023/03/25 09:29:54;;;;;;;22.85;12.98;;;;;;;9.29;100.00;97898.38;5083729;28;20036;-39
2023/03/25 09:32:21;;;;;;;21.83;11.65;;;;;;;9.21;100.00;97882.41;5085603;28;20685;-39
2023/03/25 09:34:47;;;;;;;22.65;12.75;;;;;;;9.32;100.00;97895.59;5085083;28;20465;-37
2023/03/25 09:37:13;;;;;;;16.88;9.70;;;;;;;9.27;100.00;97889.84;5084897;28;20032;-37
2023/03/25 09:39:39;;;;;;;13.68;8.93;;;;;;;9.39;100.00;97903.88;5073361;28;20041;-38
2023/03/25 09:42:29;;;;;;;12.80;6.68;;;;;;;9.36;100.00;97914.44;5068668;28;20133;-37
2023/03/25 09:45:29;;;;;;;17.65;10.02;;;;;;;9.34;100.00;97917.09;5072204;28;20431;-39
2023/03/25 09:48:31;;;;;;;14.05;9.13;;;;;;;9.28;100.00;97930.41;5067988;28;20612;-37
2023/03/25 09:51:02;;;;;;;16.80;9.32;;;;;;;9.30;100.00;97925.16;5076981;28;20044;-38
2023/03/25 09:53:39;;;;;;;15.15;9.40;;;;;;;9.33;100.00;97925.81;5077844;28;20047;-39
2023/03/25 09:56:11;;;;;;;17.63;10.13;;;;;;;9.28;100.00;97927.00;5072395;28;20086;-39
2023/03/25 09:58:42;;;;;;;16.35;9.77;;;;;;;9.31;100.00;97921.66;5048574;28;20122;-39
2023/03/25 10:01:36;;;;;;;13.30;7.65;;;;;;;9.35;100.00;97904.97;5077090;28;20724;-38
2023/03/25 10:04:33;;;;;;;19.77;10.68;;;;;;;9.30;100.00;97876.72;5080607;28;20694;-39
2023/03/25 10:07:09;;;;;;;20.20;10.07;;;;;;;9.54;100.00;97902.97;5075105;28;20044;-39
2023/03/25 10:09:40;;;;;;;15.63;10.60;;;;;;;9.68;100.00;97900.41;5079814;28;20089;-39
2023/03/25 10:12:46;;;;;;;19.25;12.10;;;;;;;9.85;100.00;97924.50;5078399;28;20061;-39
2023/03/25 10:15:21;;;;;;;16.40;9.98;;;;;;;9.88;100.00;97917.41;5078972;28;20039;-38
2023/03/25 10:17:55;;;;;;;19.10;9.93;;;;;;;9.89;100.00;97916.44;5067975;28;20043;-39
2023/03/25 10:20:45;;;;;;;16.83;9.77;;;;;;;9.84;100.00;97928.88;5085748;28;20036;-39
2023/03/25 10:23:23;;;;;;;21.73;11.93;;;;;;;9.83;100.00;97927.22;5090989;28;20040;-39
2023/03/25 10:25:59;;;;;;;18.30;9.93;;;;;;;9.63;100.00;97897.25;5076148;28;20054;-39
2023/03/25 10:28:32;;;;;;;17.45;10.55;;;;;;;9.77;100.00;97912.84;5078379;28;20154;-39
2023/03/25 10:31:01;;;;;;;20.08;11.45;;;;;;;9.95;100.00;97908.31;5038051;28;20092;-39
2023/03/25 10:33:50;;;;;;;20.35;10.00;;;;;;;10.09;100.00;97910.09;5075888;28;20052;-39
2023/03/25 10:36:21;;;;;;;19.70;10.98;;;;;;;10.26;100.00;97901.31;5074976;28;20423;-38
2023/03/25 10:38:53;;;;;;;17.02;10.02;;;;;;;10.34;100.00;97897.28;5071963;28;20071;-39
2023/03/25 10:41:26;;;;;;;17.42;10.52;;;;;;;10.39;100.00;97917.78;5074520;28;20180;-39
2023/03/25 10:43:52;;;;;;;13.77;7.78;;;;;;;10.27;100.00;97883.00;5068214;28;20123;-39
2023/03/25 10:46:33;;;;;;;13.38;8.35;;;;;;;10.36;100.00;97912.78;5089701;28;20069;-38
2023/03/25 10:48:59;;;;;;;12.93;8.40;;;;;;;10.14;100.00;97884.66;5088516;28;20048;-39
2023/03/25 10:51:31;;;;;;;16.40;10.00;;;;;;;10.43;100.00;97906.25;5089699;28;20559;-39
2023/03/25 10:53:58;;;;;;;15.90;9.57;;;;;;;10.43;100.00;97917.50;5083956;28;20530;-38
2023/03/25 10:56:39;;;;;;;14.60;9.48;;;;;;;10.38;100.00;97913.50;5082368;28;20028;-39
2023/03/25 10:59:34;;;;;;;21.00;8.90;;;;;;;10.34;100.00;97944.03;5091934;28;20436;-39
2023/03/25 11:02:09;;;;;;;14.27;8.00;;;;;;;10.28;100.00;97912.41;5074345;28;20032;-38
2023/03/25 11:04:40;;;;;;;19.85;9.57;;;;;;;10.30;100.00;97911.41;5080485;28;20567;-39
2023/03/25 11:07:19;;;;;;;15.18;7.95;;;;;;;10.28;100.00;97908.06;5061325;28;20044;-39
2023/03/25 11:09:46;;;;;;;10.50;5.90;;;;;;;10.26;100.00;97909.09;5081165;28;20437;-39
2023/03/25 11:12:18;;;;;;;16.80;9.05;;;;;;;10.29;100.00;97919.28;5070647;28;20136;-38
2023/03/25 11:14:44;;;;;;;14.10;8.13;;;;;;;10.11;100.00;97903.00;5076692;28;20397;-39
2023/03/25 11:17:14;;;;;;;16.80;10.00;;;;;;;10.19;100.00;97919.84;5077955;28;20044;-39
2023/03/25 11:19:53;;;;;;;14.50;8.60;;;;;;;10.18;100.00;97928.56;5082960;28;20062;-40
2023/03/25 11:22:23;;;;;;;15.55;8.70;;;;;;;10.21;100.00;97919.72;5090766;27;20060;-41
2023/03/25 11:24:56;;;;;;;16.35;9.57;;;;;;;10.28;100.00;97935.78;5074707;28;20044;-39
2023/03/25 11:27:24;;;;;;;15.10;9.70;;;;;;;10.35;100.00;97917.16;5074817;28;20531;-38
2023/03/25 11:29:56;;;;;;;12.82;8.48;;;;;;;10.28;100.00;97899.44;5077433;28;20032;-39
2023/03/25 11:32:24;;;;;;;15.40;8.18;;;;;;;10.45;100.00;97907.03;5082126;28;20181;-40
2023/03/25 11:34:51;;;;;;;14.73;8.82;;;;;;;10.53;100.00;97918.59;5068508;28;20039;-38
2023/03/25 11:37:21;;;;;;;17.27;9.10;;;;;;;10.47;100.00;97900.78;5047051;28;20043;-38
2023/03/25 11:39:54;;;;;;;14.23;8.30;;;;;;;10.53;100.00;97921.19;5060663;28;20044;-38
2023/03/25 11:42:29;;;;;;;13.18;8.48;;;;;;;10.55;100.00;97926.31;5087332;27;20074;-38
2023/03/25 11:44:58;;;;;;;18.42;9.82;;;;;;;10.51;100.00;97928.25;5072864;28;20079;-39
2023/03/25 11:47:35;;;;;;;14.05;8.38;;;;;;;10.53;100.00;97926.38;5083149;28;20096;-39
2023/03/25 11:50:02;;;;;;;14.23;8.30;;;;;;;10.55;100.00;97926.31;5064512;28;20043;-39